<?xml version="1.0" encoding="utf-8"?>
<gpx xmlns:xsi="http://www.w3.org/2001/XMLSchema-instance" xmlns:xsd="http://www.w3.org/2001/XMLSchema" version="1.1" creator="Shapelink.com" xmlns="http://www.topografix.com/GPX/1/1" xmlns:gpxtpx="http://www.garmin.com/xmlschemas/TrackPointExtension/v1">
  <metadata>
    <name>Övrigt 2.18 km, 2019-07-11</name>
    <desc></desc>
    <author><name>Marian Moron</name></author> 
    <time>2019-07-11T20:37:48Z</time>
  </metadata>
  <trk>
    <name>Övrigt 2.18 km, 2019-07-11</name>
    <trkseg>
      <trkpt lat="51.229892425445" lon="4.458030274867">
        <ele>34.6</ele>
        <time>2019-07-11T20:37:48Z</time>
      </trkpt>
      <trkpt lat="51.229881361337" lon="4.458017618198">
        <ele>26.6</ele>
        <time>2019-07-11T20:37:50Z</time>
      </trkpt>
      <trkpt lat="51.230050256622" lon="4.458637208246">
        <ele>16.6</ele>
        <time>2019-07-11T20:38:36Z</time>
      </trkpt>
      <trkpt lat="51.230091076475" lon="4.458762014737">
        <ele>15.2</ele>
        <time>2019-07-11T20:38:52Z</time>
      </trkpt>
      <trkpt lat="51.230124520256" lon="4.458849270316">
        <ele>12.8</ele>
        <time>2019-07-11T20:39:02Z</time>
      </trkpt>
      <trkpt lat="51.230533389338" lon="4.458763523479">
        <ele>7.2</ele>
        <time>2019-07-11T20:39:49Z</time>
      </trkpt>
      <trkpt lat="51.230857098316" lon="4.458606781949">
        <ele>4.2</ele>
        <time>2019-07-11T20:40:21Z</time>
      </trkpt>
      <trkpt lat="51.231002356643" lon="4.458548946839">
        <ele>2.4</ele>
        <time>2019-07-11T20:40:38Z</time>
      </trkpt>
      <trkpt lat="51.231121295804" lon="4.458492369014">
        <ele>1.6</ele>
        <time>2019-07-11T20:40:56Z</time>
      </trkpt>
      <trkpt lat="51.231185165882" lon="4.458441490881">
        <ele>2</ele>
        <time>2019-07-11T20:41:07Z</time>
      </trkpt>
      <trkpt lat="51.231259513335" lon="4.458347026868">
        <ele>1</ele>
        <time>2019-07-11T20:41:20Z</time>
      </trkpt>
      <trkpt lat="51.23140326292" lon="4.458280306944">
        <ele>1</ele>
        <time>2019-07-11T20:41:50Z</time>
      </trkpt>
      <trkpt lat="51.231599986113" lon="4.458322635539">
        <ele>1.4</ele>
        <time>2019-07-11T20:42:57Z</time>
      </trkpt>
      <trkpt lat="51.231999802743" lon="4.457988700643">
        <ele>7</ele>
        <time>2019-07-11T20:43:29Z</time>
      </trkpt>
      <trkpt lat="51.232210020795" lon="4.457856601899">
        <ele>6.4</ele>
        <time>2019-07-11T20:43:50Z</time>
      </trkpt>
      <trkpt lat="51.232363661022" lon="4.457712097943">
        <ele>4.2</ele>
        <time>2019-07-11T20:44:04Z</time>
      </trkpt>
      <trkpt lat="51.23230934631" lon="4.457002151013">
        <ele>0</ele>
        <time>2019-07-11T20:44:38Z</time>
      </trkpt>
      <trkpt lat="51.232244889499" lon="4.45672412339">
        <ele>0</ele>
        <time>2019-07-11T20:44:55Z</time>
      </trkpt>
      <trkpt lat="51.232133661686" lon="4.456193046206">
        <ele>0</ele>
        <time>2019-07-11T20:45:25Z</time>
      </trkpt>
      <trkpt lat="51.232095272584" lon="4.45599741266">
        <ele>0</ele>
        <time>2019-07-11T20:45:38Z</time>
      </trkpt>
      <trkpt lat="51.232053111627" lon="4.455742435262">
        <ele>0</ele>
        <time>2019-07-11T20:45:57Z</time>
      </trkpt>
      <trkpt lat="51.231994354508" lon="4.455503634931">
        <ele>0</ele>
        <time>2019-07-11T20:46:10Z</time>
      </trkpt>
      <trkpt lat="51.231962754745" lon="4.455213872648">
        <ele>0</ele>
        <time>2019-07-11T20:46:26Z</time>
      </trkpt>
      <trkpt lat="51.231909110585" lon="4.454807853412">
        <ele>3.4</ele>
        <time>2019-07-11T20:46:54Z</time>
      </trkpt>
      <trkpt lat="51.231862507221" lon="4.45457081328">
        <ele>4</ele>
        <time>2019-07-11T20:47:12Z</time>
      </trkpt>
      <trkpt lat="51.231836690969" lon="4.454390937706">
        <ele>5.4</ele>
        <time>2019-07-11T20:47:24Z</time>
      </trkpt>
      <trkpt lat="51.23180056498" lon="4.454159429628">
        <ele>4.2</ele>
        <time>2019-07-11T20:47:42Z</time>
      </trkpt>
      <trkpt lat="51.231788243587" lon="4.454120369974">
        <ele>3.6</ele>
        <time>2019-07-11T20:47:45Z</time>
      </trkpt>
      <trkpt lat="51.231762678792" lon="4.454023139934">
        <ele>1.6</ele>
        <time>2019-07-11T20:47:56Z</time>
      </trkpt>
      <trkpt lat="51.23173434797" lon="4.453942925151">
        <ele>1.6</ele>
        <time>2019-07-11T20:48:01Z</time>
      </trkpt>
      <trkpt lat="51.231714901962" lon="4.453927837731">
        <ele>1.4</ele>
        <time>2019-07-11T20:48:03Z</time>
      </trkpt>
      <trkpt lat="51.231692689927" lon="4.453938650382">
        <ele>0.8</ele>
        <time>2019-07-11T20:48:06Z</time>
      </trkpt>
      <trkpt lat="51.231265129208" lon="4.454135708851">
        <ele>12.8</ele>
        <time>2019-07-11T20:48:44Z</time>
      </trkpt>
      <trkpt lat="51.231047367446" lon="4.454205446259">
        <ele>8.8</ele>
        <time>2019-07-11T20:49:06Z</time>
      </trkpt>
      <trkpt lat="51.230616789243" lon="4.454443492219">
        <ele>9.2</ele>
        <time>2019-07-11T20:49:37Z</time>
      </trkpt>
      <trkpt lat="51.230291739161" lon="4.454539632612">
        <ele>6.4</ele>
        <time>2019-07-11T20:49:56Z</time>
      </trkpt>
      <trkpt lat="51.230211692016" lon="4.454584140501">
        <ele>1.6</ele>
        <time>2019-07-11T20:50:28Z</time>
      </trkpt>
      <trkpt lat="51.230181014262" lon="4.455022262414">
        <ele>6.8</ele>
        <time>2019-07-11T20:50:50Z</time>
      </trkpt>
      <trkpt lat="51.230071462829" lon="4.455093424745">
        <ele>5.6</ele>
        <time>2019-07-11T20:51:08Z</time>
      </trkpt>
      <trkpt lat="51.230074899408" lon="4.455124353956">
        <ele>5</ele>
        <time>2019-07-11T20:51:10Z</time>
      </trkpt>
      <trkpt lat="51.229916397679" lon="4.455202724721">
        <ele>6</ele>
        <time>2019-07-11T20:51:27Z</time>
      </trkpt>
      <trkpt lat="51.229474000997" lon="4.455008516098">
        <ele>13</ele>
        <time>2019-07-11T20:51:57Z</time>
      </trkpt>
      <trkpt lat="51.229388002703" lon="4.454990662651">
        <ele>14.8</ele>
        <time>2019-07-11T20:52:05Z</time>
      </trkpt>
      <trkpt lat="51.22924995281" lon="4.454917237207">
        <ele>16.6</ele>
        <time>2019-07-11T20:52:19Z</time>
      </trkpt>
      <trkpt lat="51.228810322155" lon="4.454772314156">
        <ele>14.4</ele>
        <time>2019-07-11T20:52:54Z</time>
      </trkpt>
      <trkpt lat="51.228463395314" lon="4.454761585324">
        <ele>9</ele>
        <time>2019-07-11T20:53:29Z</time>
      </trkpt>
      <trkpt lat="51.228309000716" lon="4.454810367982">
        <ele>8.4</ele>
        <time>2019-07-11T20:53:43Z</time>
      </trkpt>
      <trkpt lat="51.228115714102" lon="4.454859821192">
        <ele>8.4</ele>
        <time>2019-07-11T20:54:02Z</time>
      </trkpt>
      <trkpt lat="51.22793315632" lon="4.454903909986">
        <ele>2.2</ele>
        <time>2019-07-11T20:54:29Z</time>
      </trkpt>
      <trkpt lat="51.227827712018" lon="4.454966271322">
        <ele>1.4</ele>
        <time>2019-07-11T20:54:47Z</time>
      </trkpt>
      <trkpt lat="51.227799548834" lon="4.4550133776">
        <ele>2</ele>
        <time>2019-07-11T20:54:52Z</time>
      </trkpt>
      <trkpt lat="51.22774037262" lon="4.455104572672">
        <ele>2.4</ele>
        <time>2019-07-11T20:55:01Z</time>
      </trkpt>
      <trkpt lat="51.227827376742" lon="4.455363824839">
        <ele>3.6</ele>
        <time>2019-07-11T20:55:24Z</time>
      </trkpt>
      <trkpt lat="51.228061567028" lon="4.455981319412">
        <ele>1.6</ele>
        <time>2019-07-11T20:56:18Z</time>
      </trkpt>
      <trkpt lat="51.228117474301" lon="4.456179467528">
        <ele>6.8</ele>
        <time>2019-07-11T20:56:37Z</time>
      </trkpt>
      <trkpt lat="51.228159886715" lon="4.456278960681">
        <ele>6.6</ele>
        <time>2019-07-11T20:56:49Z</time>
      </trkpt>
      <trkpt lat="51.228401788349" lon="4.456836021755">
        <ele>12</ele>
        <time>2019-07-11T20:57:34Z</time>
      </trkpt>
      <trkpt lat="51.228483930969" lon="4.456933587071">
        <ele>7.4</ele>
        <time>2019-07-11T20:57:46Z</time>
      </trkpt>
      <trkpt lat="51.228943007632" lon="4.456845996216">
        <ele>4.4</ele>
        <time>2019-07-11T20:58:25Z</time>
      </trkpt>
      <trkpt lat="51.229380375174" lon="4.456806014553">
        <ele>7.8</ele>
        <time>2019-07-11T20:59:16Z</time>
      </trkpt>
      <trkpt lat="51.229632921821" lon="4.45662773154">
        <ele>15</ele>
        <time>2019-07-11T20:59:56Z</time>
      </trkpt>
      <trkpt lat="51.23005042426" lon="4.456550701879">
        <ele>4.2</ele>
        <time>2019-07-11T21:00:37Z</time>
      </trkpt>
      <trkpt lat="51.230432974176" lon="4.456410975606">
        <ele>4.4</ele>
        <time>2019-07-11T21:01:15Z</time>
      </trkpt>
      <trkpt lat="51.230860367257" lon="4.45621701844">
        <ele>4</ele>
        <time>2019-07-11T21:02:04Z</time>
      </trkpt>
      <trkpt lat="51.23100093172" lon="4.456146861937">
        <ele>4.4</ele>
        <time>2019-07-11T21:02:33Z</time>
      </trkpt>
      <trkpt lat="51.231172341575" lon="4.456282564898">
        <ele>8.8</ele>
        <time>2019-07-11T21:02:59Z</time>
      </trkpt>
      <trkpt lat="51.23121550836" lon="4.456529411853">
        <ele>9.4</ele>
        <time>2019-07-11T21:03:18Z</time>
      </trkpt>
      <trkpt lat="51.231231266332" lon="4.457196191998">
        <ele>10</ele>
        <time>2019-07-11T21:03:54Z</time>
      </trkpt>
      <trkpt lat="51.231228500305" lon="4.457275233315">
        <ele>10.6</ele>
        <time>2019-07-11T21:04:02Z</time>
      </trkpt>
      <trkpt lat="51.231226237192" lon="4.457549069988">
        <ele>15.2</ele>
        <time>2019-07-11T21:04:22Z</time>
      </trkpt>
      <trkpt lat="51.231237385119" lon="4.457595505714">
        <ele>15</ele>
        <time>2019-07-11T21:04:26Z</time>
      </trkpt>
      <trkpt lat="51.231367304569" lon="4.458288269749">
        <ele>3.6</ele>
        <time>2019-07-11T21:05:14Z</time>
      </trkpt>
      <trkpt lat="51.231352468606" lon="4.45836781398">
        <ele>5</ele>
        <time>2019-07-11T21:05:19Z</time>
      </trkpt>
      <trkpt lat="51.231297231885" lon="4.458548276287">
        <ele>5.4</ele>
        <time>2019-07-11T21:05:29Z</time>
      </trkpt>
      <trkpt lat="51.230872437193" lon="4.458778359442">
        <ele>8.4</ele>
        <time>2019-07-11T21:06:17Z</time>
      </trkpt>
      <trkpt lat="51.230722233545" lon="4.4588187602">
        <ele>8.2</ele>
        <time>2019-07-11T21:06:30Z</time>
      </trkpt>
      <trkpt lat="51.230430459606" lon="4.459057309074">
        <ele>16.4</ele>
        <time>2019-07-11T21:07:11Z</time>
      </trkpt>
      <trkpt lat="51.230409840132" lon="4.459116150012">
        <ele>19.8</ele>
        <time>2019-07-11T21:07:16Z</time>
      </trkpt>
      <trkpt lat="51.230423586448" lon="4.459213715328">
        <ele>22</ele>
        <time>2019-07-11T21:07:23Z</time>
      </trkpt>
      <trkpt lat="51.230470525088" lon="4.45924707529">
        <ele>22.2</ele>
        <time>2019-07-11T21:07:26Z</time>
      </trkpt>
      <trkpt lat="51.230502879222" lon="4.45928730841">
        <ele>22</ele>
        <time>2019-07-11T21:07:29Z</time>
      </trkpt>
      <trkpt lat="51.230511512579" lon="4.459389483771">
        <ele>22.8</ele>
        <time>2019-07-11T21:07:37Z</time>
      </trkpt>
      <trkpt lat="51.230597259416" lon="4.45969550694">
        <ele>11.8</ele>
        <time>2019-07-11T21:07:57Z</time>
      </trkpt>
      <trkpt lat="51.23066062658" lon="4.459720149726">
        <ele>7.8</ele>
        <time>2019-07-11T21:08:06Z</time>
      </trkpt>
      <trkpt lat="51.230688454488" lon="4.459801202699">
        <ele>4.2</ele>
        <time>2019-07-11T21:08:20Z</time>
      </trkpt>
      <trkpt lat="51.230639923287" lon="4.459825845485">
        <ele>4.2</ele>
        <time>2019-07-11T21:08:26Z</time>
      </trkpt>
      <trkpt lat="51.230493240037" lon="4.459866246243">
        <ele>1.6</ele>
        <time>2019-07-11T21:08:41Z</time>
      </trkpt>
      <trkpt lat="51.230455856763" lon="4.459796425016">
        <ele>0.8</ele>
        <time>2019-07-11T21:08:48Z</time>
      </trkpt>
      <trkpt lat="51.23043850623" lon="4.459480427386">
        <ele>0</ele>
        <time>2019-07-11T21:09:18Z</time>
      </trkpt>
      <trkpt lat="51.23042509519" lon="4.459413623643">
        <ele>0</ele>
        <time>2019-07-11T21:09:22Z</time>
      </trkpt>
      <trkpt lat="51.23021554769" lon="4.45900819114">
        <ele>0</ele>
        <time>2019-07-11T21:10:44Z</time>
      </trkpt>
      <trkpt lat="51.230100380384" lon="4.458986733476">
        <ele>1.6</ele>
        <time>2019-07-11T21:11:09Z</time>
      </trkpt>
      <trkpt lat="51.22987775712" lon="4.458409388204">
        <ele>2.8</ele>
        <time>2019-07-11T21:11:52Z</time>
      </trkpt>
      <trkpt lat="51.229776419949" lon="4.45796296821">
        <ele>11.6</ele>
        <time>2019-07-11T21:12:29Z</time>
      </trkpt>
      <trkpt lat="51.22974280853" lon="4.457954334853">
        <ele>12.6</ele>
        <time>2019-07-11T21:12:32Z</time>
      </trkpt>
      <trkpt lat="51.229715818812" lon="4.457947629333">
        <ele>13.6</ele>
        <time>2019-07-11T21:12:36Z</time>
      </trkpt>
    </trkseg>
  </trk>
</gpx>